Time;durP1;ratioP1;P1;durP2;ratioP2;P2;SDS_P1;SDS_P2;PMS_P1;PMS_P2;Temp;Humidity;BMP_temperature;BMP_pressure;BME280_temperature;BME280_humidity;BME280_pressure;Samples;Min_cycle;Max_cycle;Signal;HPM_P1;HPM_P2
2023/07/31 00:01:26;;;;;;;0.10;0.10;;;;;;;;;;5031932;28;20033;-83
2023/07/31 00:03:52;;;;;;;0.47;0.47;;;;;;;;;;5032088;28;20409;-83
2023/07/31 00:06:18;;;;;;;0.38;0.17;;;;;;;;;;5032025;28;20048;-83
2023/07/31 00:08:44;;;;;;;0.00;0.00;;;;;;;;;;5032262;28;20061;-83
2023/07/31 00:11:10;;;;;;;0.10;0.10;;;;;;;;;;5032096;28;20017;-83
2023/07/31 00:13:36;;;;;;;0.10;0.10;;;;;;;;;;5031799;28;20070;-83
2023/07/31 00:16:02;;;;;;;0.10;0.10;;;;;;;;;;5031871;28;20490;-83
2023/07/31 00:18:28;;;;;;;0.10;0.10;;;;;;;;;;5030462;28;20473;-83
2023/07/31 00:20:54;;;;;;;0.00;0.00;;;;;;;;;;5031764;28;20053;-83
2023/07/31 00:23:20;;;;;;;0.10;0.10;;;;;;;;;;5031669;28;20026;-83
2023/07/31 00:25:46;;;;;;;0.10;0.10;;;;;;;;;;5031675;28;20362;-83
2023/07/31 00:28:12;;;;;;;0.10;0.10;;;;;;;;;;5031214;28;20040;-83
2023/07/31 00:30:38;;;;;;;0.00;0.00;;;;;;;;;;5031746;28;20033;-83
2023/07/31 00:33:04;;;;;;;0.10;0.10;;;;;;;;;;5032178;28;20076;-83
2023/07/31 00:35:30;;;;;;;0.10;0.10;;;;;;;;;;5031737;28;20025;-83
2023/07/31 00:37:57;;;;;;;1.08;0.47;;;;;;;;;;5034024;28;20073;-83
2023/07/31 00:40:23;;;;;;;0.00;0.00;;;;;;;;;;5035746;28;20053;-83
2023/07/31 00:42:49;;;;;;;0.10;0.10;;;;;;;;;;5035520;28;20438;-83
2023/07/31 00:45:15;;;;;;;0.17;0.17;;;;;;;;;;5035692;28;20151;-83
2023/07/31 00:47:41;;;;;;;0.00;0.00;;;;;;;;;;5035437;28;20052;-83
2023/07/31 00:50:07;;;;;;;0.10;0.10;;;;;;;;;;5035531;28;20026;-83
2023/07/31 00:52:33;;;;;;;0.10;0.10;;;;;;;;;;5035345;28;20041;-82
2023/07/31 00:54:59;;;;;;;0.00;0.00;;;;;;;;;;5035967;28;20022;-83
2023/07/31 00:57:25;;;;;;;0.05;0.05;;;;;;;;;;5035084;28;20479;-83
2023/07/31 00:59:51;;;;;;;0.03;0.03;;;;;;;;;;5035329;28;20028;-83
2023/07/31 01:02:17;;;;;;;0.13;0.13;;;;;;;;;;5035202;28;20393;-83
2023/07/31 01:04:44;;;;;;;0.10;0.10;;;;;;;;;;5035414;28;20047;-83
2023/07/31 01:07:13;;;;;;;0.10;0.10;;;;;;;;;;5035263;28;20083;-83
2023/07/31 01:09:51;;;;;;;0.10;0.10;;;;;;;;;;5035642;28;20025;-83
2023/07/31 01:12:17;;;;;;;0.00;0.00;;;;;;;;;;5034783;28;20045;-83
2023/07/31 01:15:06;;;;;;;0.10;0.10;;;;;;;;;;5035134;28;20029;-83
2023/07/31 01:17:33;;;;;;;0.30;0.17;;;;;;;;;;5029422;28;20044;-83
2023/07/31 01:20:02;;;;;;;0.15;0.15;;;;;;;;;;5034946;28;20025;-83
2023/07/31 01:22:47;;;;;;;0.10;0.10;;;;;;;;;;5034880;28;20025;-83
2023/07/31 01:25:33;;;;;;;0.20;0.20;;;;;;;;;;5015120;28;20030;-83
2023/07/31 01:28:00;;;;;;;0.40;0.40;;;;;;;;;;4944084;28;20039;-83
2023/07/31 01:30:28;;;;;;;0.30;0.30;;;;;;;;;;4973673;28;20066;-83
2023/07/31 01:32:55;;;;;;;0.35;0.20;;;;;;;;;;4973647;28;20087;-83
2023/07/31 01:35:21;;;;;;;0.30;0.30;;;;;;;;;;4974058;28;20030;-83
2023/07/31 01:37:47;;;;;;;0.10;0.10;;;;;;;;;;4973960;28;20531;-83
2023/07/31 01:40:13;;;;;;;0.00;0.00;;;;;;;;;;4973723;28;20074;-83
2023/07/31 01:42:39;;;;;;;0.10;0.10;;;;;;;;;;4973276;28;20027;-83
2023/07/31 01:45:05;;;;;;;0.00;0.00;;;;;;;;;;4973572;28;20529;-83
2023/07/31 01:47:31;;;;;;;0.10;0.10;;;;;;;;;;4973393;28;20121;-83
2023/07/31 01:49:57;;;;;;;0.10;0.10;;;;;;;;;;4973780;28;20106;-83
2023/07/31 01:52:23;;;;;;;0.08;0.08;;;;;;;;;;4973374;28;20047;-83
2023/07/31 01:54:49;;;;;;;0.10;0.10;;;;;;;;;;4973409;28;20159;-83
2023/07/31 01:57:15;;;;;;;0.00;0.00;;;;;;;;;;4973070;28;20126;-83
2023/07/31 01:59:41;;;;;;;0.10;0.10;;;;;;;;;;4973226;28;20074;-83
2023/07/31 02:02:07;;;;;;;0.10;0.10;;;;;;;;;;4972998;28;20503;-82
2023/07/31 02:04:34;;;;;;;0.10;0.10;;;;;;;;;;4985335;28;20042;-83
2023/07/31 02:07:00;;;;;;;0.20;0.20;;;;;;;;;;5014832;28;20083;-83
2023/07/31 02:09:26;;;;;;;0.20;0.20;;;;;;;;;;5014079;28;20429;-83
2023/07/31 02:11:52;;;;;;;0.20;0.20;;;;;;;;;;5014146;28;20041;-82
2023/07/31 02:14:18;;;;;;;0.10;0.10;;;;;;;;;;5014203;28;20063;-83
2023/07/31 02:16:43;;;;;;;0.10;0.10;;;;;;;;;;5013897;28;20525;-83
2023/07/31 02:19:09;;;;;;;0.20;0.20;;;;;;;;;;5014187;28;20127;-83
2023/07/31 02:21:35;;;;;;;0.10;0.10;;;;;;;;;;5014129;28;20032;-83
2023/07/31 02:24:01;;;;;;;0.20;0.20;;;;;;;;;;5023971;28;20029;-82
2023/07/31 02:26:27;;;;;;;0.00;0.00;;;;;;;;;;5033625;28;20072;-83
2023/07/31 02:28:53;;;;;;;0.10;0.10;;;;;;;;;;5034103;28;20033;-83
2023/07/31 02:31:19;;;;;;;0.03;0.03;;;;;;;;;;5033426;28;20030;-83
2023/07/31 02:33:45;;;;;;;0.10;0.10;;;;;;;;;;5033257;28;20087;-83
2023/07/31 02:36:11;;;;;;;0.10;0.10;;;;;;;;;;5033739;28;20537;-83
2023/07/31 02:38:37;;;;;;;0.10;0.10;;;;;;;;;;5033484;28;20108;-83
2023/07/31 02:41:03;;;;;;;0.10;0.10;;;;;;;;;;5033437;28;20072;-83
2023/07/31 02:43:29;;;;;;;0.10;0.10;;;;;;;;;;5033373;28;20033;-83
2023/07/31 02:45:55;;;;;;;0.03;0.03;;;;;;;;;;5033558;28;20029;-83
2023/07/31 02:48:21;;;;;;;0.10;0.10;;;;;;;;;;5033488;28;20390;-83
2023/07/31 02:50:48;;;;;;;0.22;0.20;;;;;;;;;;5033175;28;20026;-83
2023/07/31 02:53:14;;;;;;;0.10;0.10;;;;;;;;;;5032876;28;20087;-83
2023/07/31 02:55:40;;;;;;;0.20;0.20;;;;;;;;;;5033125;28;20478;-83
2023/07/31 02:58:06;;;;;;;0.10;0.10;;;;;;;;;;5033289;28;20025;-83
2023/07/31 03:00:32;;;;;;;0.10;0.10;;;;;;;;;;5032433;28;20129;-83
2023/07/31 03:02:58;;;;;;;0.10;0.10;;;;;;;;;;5033277;28;20033;-83
2023/07/31 03:05:24;;;;;;;0.10;0.10;;;;;;;;;;5033028;28;20076;-83
2023/07/31 03:07:50;;;;;;;0.45;0.40;;;;;;;;;;5032838;28;20080;-83
2023/07/31 03:10:16;;;;;;;0.00;0.00;;;;;;;;;;5032924;28;20470;-83
2023/07/31 03:12:42;;;;;;;0.10;0.10;;;;;;;;;;5032709;28;20045;-82
2023/07/31 03:15:08;;;;;;;0.10;0.10;;;;;;;;;;5032666;28;20084;-83
2023/07/31 03:17:34;;;;;;;0.20;0.20;;;;;;;;;;5033095;28;20049;-83
2023/07/31 03:20:00;;;;;;;0.10;0.10;;;;;;;;;;5032719;28;20026;-83
2023/07/31 03:22:26;;;;;;;0.10;0.10;;;;;;;;;;5032365;28;20033;-83
2023/07/31 03:24:52;;;;;;;0.10;0.10;;;;;;;;;;5032541;28;20101;-83
2023/07/31 03:27:19;;;;;;;0.10;0.10;;;;;;;;;;5032427;28;20030;-83
2023/07/31 03:29:45;;;;;;;0.10;0.10;;;;;;;;;;5032413;28;20026;-82
2023/07/31 03:32:11;;;;;;;0.10;0.10;;;;;;;;;;5032384;28;20064;-83
2023/07/31 03:34:37;;;;;;;0.10;0.10;;;;;;;;;;5032523;28;20112;-83
2023/07/31 03:37:04;;;;;;;0.75;0.57;;;;;;;;;;5032114;28;20029;-83
2023/07/31 03:39:31;;;;;;;0.20;0.20;;;;;;;;;;5032820;28;20022;-83
2023/07/31 03:41:57;;;;;;;0.10;0.10;;;;;;;;;;5032312;28;20032;-83
2023/07/31 03:44:22;;;;;;;0.10;0.10;;;;;;;;;;5032474;28;20033;-83
2023/07/31 03:46:48;;;;;;;0.10;0.10;;;;;;;;;;5032445;28;20495;-83
2023/07/31 03:49:14;;;;;;;0.10;0.10;;;;;;;;;;5032285;28;20031;-83
2023/07/31 03:51:41;;;;;;;0.10;0.10;;;;;;;;;;5032092;28;20036;-83
2023/07/31 03:54:07;;;;;;;1.88;0.47;;;;;;;;;;5032446;28;20025;-83
2023/07/31 03:56:33;;;;;;;0.05;0.05;;;;;;;;;;5032041;28;20026;-83
2023/07/31 03:59:00;;;;;;;0.00;0.00;;;;;;;;;;5032723;28;20029;-83
2023/07/31 04:01:26;;;;;;;0.10;0.10;;;;;;;;;;5032072;28;20025;-83
2023/07/31 04:03:52;;;;;;;0.10;0.10;;;;;;;;;;5032094;28;20029;-83
2023/07/31 04:06:18;;;;;;;1.35;0.47;;;;;;;;;;5031852;28;20032;-83
2023/07/31 04:08:45;;;;;;;0.10;0.10;;;;;;;;;;5030722;28;20117;-82
2023/07/31 04:11:12;;;;;;;1.20;0.40;;;;;;;;;;5031327;28;20548;-82
2023/07/31 04:13:38;;;;;;;0.45;0.45;;;;;;;;;;5032035;28;20517;-83
2023/07/31 04:16:04;;;;;;;0.20;0.20;;;;;;;;;;5032024;28;20029;-83
2023/07/31 04:18:30;;;;;;;0.13;0.13;;;;;;;;;;5031687;28;20076;-82
2023/07/31 04:20:58;;;;;;;0.10;0.10;;;;;;;;;;5031535;28;20033;-83
2023/07/31 04:23:24;;;;;;;0.10;0.10;;;;;;;;;;5032115;28;20029;-83
2023/07/31 04:25:50;;;;;;;0.10;0.10;;;;;;;;;;5032138;28;20076;-82
2023/07/31 04:28:16;;;;;;;0.10;0.10;;;;;;;;;;5032075;28;20033;-83
2023/07/31 04:30:42;;;;;;;0.10;0.10;;;;;;;;;;5032465;28;20073;-83
2023/07/31 04:33:08;;;;;;;0.15;0.15;;;;;;;;;;5031879;28;20044;-83
2023/07/31 04:35:34;;;;;;;0.00;0.00;;;;;;;;;;5031737;28;20021;-83
2023/07/31 04:38:00;;;;;;;0.10;0.10;;;;;;;;;;5032145;28;20033;-82
2023/07/31 04:40:26;;;;;;;0.08;0.08;;;;;;;;;;5032133;28;20393;-84
2023/07/31 04:42:52;;;;;;;0.10;0.10;;;;;;;;;;5032223;28;20036;-83
2023/07/31 04:45:18;;;;;;;0.00;0.00;;;;;;;;;;5032676;28;20492;-83
2023/07/31 04:47:44;;;;;;;0.10;0.10;;;;;;;;;;5031972;28;20033;-83
2023/07/31 04:50:10;;;;;;;0.75;0.35;;;;;;;;;;5031321;28;20360;-83
2023/07/31 04:52:36;;;;;;;0.10;0.10;;;;;;;;;;5032180;28;20558;-83
2023/07/31 04:55:02;;;;;;;0.03;0.03;;;;;;;;;;5031658;28;20021;-83
2023/07/31 04:57:28;;;;;;;0.10;0.10;;;;;;;;;;5031526;28;20033;-82
2023/07/31 04:59:54;;;;;;;0.10;0.10;;;;;;;;;;5031521;28;20509;-83
2023/07/31 05:02:20;;;;;;;0.10;0.10;;;;;;;;;;5031862;28;20037;-83
2023/07/31 05:04:46;;;;;;;0.30;0.30;;;;;;;;;;5031469;28;20026;-83
2023/07/31 05:07:12;;;;;;;1.33;0.52;;;;;;;;;;5031444;28;20430;-82
2023/07/31 05:09:39;;;;;;;0.10;0.10;;;;;;;;;;5031487;28;20022;-83
2023/07/31 05:12:05;;;;;;;0.43;0.43;;;;;;;;;;5031261;28;20037;-83
2023/07/31 05:14:31;;;;;;;0.10;0.10;;;;;;;;;;5031830;28;20026;-83
2023/07/31 05:16:57;;;;;;;0.08;0.08;;;;;;;;;;5031310;28;20053;-82
2023/07/31 05:19:23;;;;;;;0.10;0.10;;;;;;;;;;5031070;28;20021;-83
2023/07/31 05:21:49;;;;;;;0.10;0.10;;;;;;;;;;5031307;28;20062;-82
2023/07/31 05:24:15;;;;;;;0.28;0.28;;;;;;;;;;5033660;28;20557;-83
2023/07/31 05:26:41;;;;;;;0.10;0.10;;;;;;;;;;5035088;28;20048;-83
2023/07/31 05:29:07;;;;;;;0.20;0.20;;;;;;;;;;5034493;28;20490;-83
2023/07/31 05:31:33;;;;;;;0.10;0.10;;;;;;;;;;5035070;28;20026;-82
2023/07/31 05:33:59;;;;;;;0.00;0.00;;;;;;;;;;5034528;28;20108;-82
2023/07/31 05:36:25;;;;;;;0.20;0.20;;;;;;;;;;5034702;28;20068;-83
2023/07/31 05:38:51;;;;;;;0.10;0.10;;;;;;;;;;5034600;28;20041;-82
2023/07/31 05:41:18;;;;;;;0.10;0.10;;;;;;;;;;5034636;28;20021;-82
2023/07/31 05:43:44;;;;;;;0.40;0.30;;;;;;;;;;5034869;28;20505;-82
2023/07/31 05:46:11;;;;;;;0.10;0.10;;;;;;;;;;5034620;28;20026;-82
2023/07/31 05:48:37;;;;;;;0.08;0.08;;;;;;;;;;5033997;28;20387;-82
2023/07/31 05:51:03;;;;;;;0.10;0.10;;;;;;;;;;5034229;28;20029;-83
2023/07/31 05:53:29;;;;;;;0.08;0.08;;;;;;;;;;5034167;28;20048;-83
2023/07/31 05:55:55;;;;;;;0.10;0.10;;;;;;;;;;5034723;28;20026;-82
2023/07/31 05:58:21;;;;;;;0.20;0.20;;;;;;;;;;5034323;28;20486;-82
2023/07/31 06:00:47;;;;;;;0.17;0.17;;;;;;;;;;5034230;28;20029;-82
2023/07/31 06:03:13;;;;;;;0.10;0.10;;;;;;;;;;5033727;28;20524;-83
2023/07/31 06:05:39;;;;;;;0.20;0.20;;;;;;;;;;5034354;28;20049;-82
2023/07/31 06:08:05;;;;;;;0.10;0.10;;;;;;;;;;5034159;28;20441;-83
2023/07/31 06:10:31;;;;;;;0.10;0.10;;;;;;;;;;5034244;28;20482;-83
2023/07/31 06:12:57;;;;;;;0.35;0.35;;;;;;;;;;5033936;28;20116;-83
2023/07/31 06:15:23;;;;;;;0.20;0.20;;;;;;;;;;5033732;28;20033;-83
2023/07/31 06:17:49;;;;;;;0.10;0.10;;;;;;;;;;5033649;28;20065;-82
2023/07/31 06:20:15;;;;;;;0.05;0.05;;;;;;;;;;5034219;28;20026;-92
2023/07/31 06:22:41;;;;;;;0.20;0.20;;;;;;;;;;5034359;28;20037;-89
2023/07/31 06:25:07;;;;;;;0.10;0.10;;;;;;;;;;5034377;28;20056;-84
2023/07/31 06:27:33;;;;;;;0.10;0.10;;;;;;;;;;5033659;28;20525;-84
2023/07/31 06:29:59;;;;;;;0.10;0.10;;;;;;;;;;5034143;28;20042;-84
2023/07/31 06:32:25;;;;;;;0.00;0.00;;;;;;;;;;5033395;28;20034;-83
2023/07/31 06:34:51;;;;;;;0.10;0.10;;;;;;;;;;5032899;28;20032;-83
2023/07/31 06:37:17;;;;;;;0.00;0.00;;;;;;;;;;5033857;28;20029;-83
2023/07/31 06:39:43;;;;;;;0.10;0.10;;;;;;;;;;5033398;28;20367;-84
2023/07/31 06:42:09;;;;;;;0.10;0.10;;;;;;;;;;5033606;28;20038;-83
2023/07/31 06:44:35;;;;;;;0.10;0.10;;;;;;;;;;5033543;28;20079;-82
2023/07/31 06:47:01;;;;;;;0.10;0.10;;;;;;;;;;5033052;28;20103;-82
2023/07/31 06:49:27;;;;;;;0.10;0.10;;;;;;;;;;5033470;28;20478;-82
2023/07/31 06:51:53;;;;;;;0.03;0.03;;;;;;;;;;5033319;28;20072;-83
2023/07/31 06:54:19;;;;;;;0.40;0.30;;;;;;;;;;5033790;28;20028;-75
2023/07/31 06:56:45;;;;;;;0.05;0.05;;;;;;;;;;5033258;28;20462;-76
2023/07/31 06:59:11;;;;;;;0.13;0.13;;;;;;;;;;5033139;28;20022;-78
2023/07/31 07:01:37;;;;;;;0.10;0.10;;;;;;;;;;5033170;28;20026;-76
2023/07/31 07:04:03;;;;;;;0.10;0.10;;;;;;;;;;5033223;28;20156;-75
2023/07/31 07:06:29;;;;;;;0.00;0.00;;;;;;;;;;5033016;28;20025;-74
2023/07/31 07:08:55;;;;;;;0.10;0.10;;;;;;;;;;5033620;28;20033;-77
2023/07/31 07:11:21;;;;;;;0.70;0.30;;;;;;;;;;5033251;28;20036;-78
2023/07/31 07:13:47;;;;;;;0.10;0.10;;;;;;;;;;5033643;28;20033;-75
2023/07/31 07:16:13;;;;;;;0.10;0.10;;;;;;;;;;5032827;28;20029;-91
2023/07/31 07:18:39;;;;;;;0.20;0.20;;;;;;;;;;5032832;28;20072;-76
2023/07/31 07:21:05;;;;;;;0.10;0.10;;;;;;;;;;5032634;28;20087;-76
2023/07/31 07:23:32;;;;;;;0.10;0.10;;;;;;;;;;5033000;28;20280;-80
2023/07/31 07:25:58;;;;;;;0.00;0.00;;;;;;;;;;5032843;28;20056;-89
2023/07/31 07:28:24;;;;;;;0.08;0.08;;;;;;;;;;5032111;28;20029;-75
2023/07/31 07:30:54;;;;;;;0.10;0.10;;;;;;;;;;5032673;28;20103;-75
2023/07/31 07:33:20;;;;;;;0.10;0.10;;;;;;;;;;5032450;28;20041;-76
2023/07/31 07:35:46;;;;;;;0.20;0.20;;;;;;;;;;5032534;28;20025;-75
2023/07/31 07:38:12;;;;;;;0.45;0.10;;;;;;;;;;5032570;28;20026;-75
2023/07/31 07:40:41;;;;;;;0.10;0.10;;;;;;;;;;5032581;28;20413;-76
2023/07/31 07:43:07;;;;;;;0.20;0.20;;;;;;;;;;5032123;28;20056;-75
2023/07/31 07:45:33;;;;;;;0.13;0.13;;;;;;;;;;5032653;28;20088;-74
2023/07/31 07:47:59;;;;;;;0.22;0.22;;;;;;;;;;5035021;28;20493;-75
2023/07/31 07:50:25;;;;;;;0.15;0.15;;;;;;;;;;5031512;28;20034;-74
2023/07/31 07:52:51;;;;;;;0.00;0.00;;;;;;;;;;5031302;28;20096;-75
2023/07/31 07:55:17;;;;;;;0.15;0.15;;;;;;;;;;5031696;28;20073;-75
2023/07/31 07:57:44;;;;;;;0.25;0.25;;;;;;;;;;5032115;28;20052;-75
2023/07/31 08:00:10;;;;;;;0.20;0.20;;;;;;;;;;5032208;28;20028;-75
2023/07/31 08:02:36;;;;;;;0.10;0.10;;;;;;;;;;5031935;28;20029;-75
2023/07/31 08:05:03;;;;;;;0.30;0.30;;;;;;;;;;5031615;28;20111;-75
2023/07/31 08:07:29;;;;;;;0.00;0.00;;;;;;;;;;5031753;28;20030;-75
2023/07/31 08:09:55;;;;;;;0.03;0.03;;;;;;;;;;5032085;28;20048;-75
2023/07/31 08:12:21;;;;;;;0.10;0.10;;;;;;;;;;5031395;28;20041;-75
2023/07/31 08:14:47;;;;;;;0.00;0.00;;;;;;;;;;5032313;28;20036;-75
2023/07/31 08:17:13;;;;;;;0.10;0.10;;;;;;;;;;5038919;28;20044;-75
2023/07/31 08:19:39;;;;;;;0.10;0.10;;;;;;;;;;5032080;28;20025;-75
2023/07/31 08:22:05;;;;;;;0.10;0.10;;;;;;;;;;5034094;28;20037;-75
2023/07/31 08:24:31;;;;;;;0.17;0.17;;;;;;;;;;5031440;28;20547;-75
2023/07/31 08:26:57;;;;;;;0.22;0.22;;;;;;;;;;5032849;28;20033;-75
2023/07/31 08:29:23;;;;;;;0.00;0.00;;;;;;;;;;5031685;28;20417;-75
2023/07/31 08:31:49;;;;;;;0.47;0.40;;;;;;;;;;5042218;28;20033;-75
2023/07/31 08:34:15;;;;;;;0.90;0.50;;;;;;;;;;5052055;28;20036;-75
2023/07/31 08:36:41;;;;;;;0.10;0.10;;;;;;;;;;5052030;28;20032;-75
2023/07/31 08:39:07;;;;;;;0.22;0.22;;;;;;;;;;5051682;28;20527;-75
2023/07/31 08:41:38;;;;;;;0.00;0.00;;;;;;;;;;5049234;28;20025;-75
2023/07/31 08:44:04;;;;;;;0.00;0.00;;;;;;;;;;5049161;28;20039;-75
2023/07/31 08:46:30;;;;;;;1.08;0.30;;;;;;;;;;5051384;28;20385;-74
2023/07/31 08:48:58;;;;;;;0.00;0.00;;;;;;;;;;5051766;28;20032;-75
2023/07/31 08:51:24;;;;;;;0.05;0.05;;;;;;;;;;5051742;28;20107;-75
2023/07/31 08:53:50;;;;;;;0.73;0.43;;;;;;;;;;5051559;28;20112;-75
2023/07/31 08:56:17;;;;;;;0.32;0.32;;;;;;;;;;5046148;28;20028;-75
2023/07/31 08:58:43;;;;;;;0.55;0.55;;;;;;;;;;5053283;28;20025;-75
2023/07/31 09:01:10;;;;;;;0.10;0.10;;;;;;;;;;5049325;28;20064;-76
2023/07/31 09:03:37;;;;;;;0.43;0.43;;;;;;;;;;5035595;28;20026;-75
2023/07/31 09:06:06;;;;;;;0.10;0.10;;;;;;;;;;5034640;28;20034;-76
2023/07/31 09:08:32;;;;;;;0.20;0.20;;;;;;;;;;5022153;28;20044;-75
2023/07/31 09:11:05;;;;;;;0.10;0.10;;;;;;;;;;5050797;28;20420;-75
2023/07/31 09:13:32;;;;;;;0.30;0.30;;;;;;;;;;5044614;28;20041;-75
2023/07/31 09:15:58;;;;;;;0.30;0.30;;;;;;;;;;5035478;28;20053;-74
2023/07/31 09:18:24;;;;;;;0.88;0.52;;;;;;;;;;5042323;28;20387;-75
2023/07/31 09:21:03;;;;;;;0.10;0.10;;;;;;;;;;5034853;28;20035;-74
2023/07/31 09:23:41;;;;;;;0.10;0.10;;;;;;;;;;5027783;28;20165;-74
2023/07/31 09:26:06;;;;;;;0.55;0.55;;;;;;;;;;5034310;28;20029;-75
2023/07/31 09:28:32;;;;;;;0.00;0.00;;;;;;;;;;5034952;28;20045;-74
2023/07/31 09:30:58;;;;;;;0.17;0.10;;;;;;;;;;5035017;28;20048;-74
2023/07/31 09:33:24;;;;;;;0.20;0.20;;;;;;;;;;5054020;28;20424;-75
2023/07/31 09:35:50;;;;;;;0.10;0.10;;;;;;;;;;5050335;28;20060;-76
2023/07/31 09:38:17;;;;;;;0.20;0.20;;;;;;;;;;5052674;28;20040;-77
2023/07/31 09:40:44;;;;;;;0.10;0.10;;;;;;;;;;5052430;28;20115;-76
2023/07/31 09:43:11;;;;;;;0.10;0.10;;;;;;;;;;5054600;28;20024;-75
2023/07/31 09:45:38;;;;;;;0.65;0.30;;;;;;;;;;5044560;28;20108;-75
2023/07/31 09:48:08;;;;;;;0.10;0.10;;;;;;;;;;5046551;28;20095;-76
2023/07/31 09:50:36;;;;;;;0.20;0.20;;;;;;;;;;5034749;28;20091;-76
2023/07/31 09:53:02;;;;;;;0.10;0.10;;;;;;;;;;5022629;28;20426;-76
2023/07/31 09:55:29;;;;;;;0.08;0.08;;;;;;;;;;5014385;28;20032;-75
2023/07/31 09:57:57;;;;;;;0.25;0.25;;;;;;;;;;5018331;28;20124;-75
2023/07/31 10:00:26;;;;;;;0.10;0.10;;;;;;;;;;5034516;28;20104;-75
2023/07/31 10:02:52;;;;;;;0.00;0.00;;;;;;;;;;5034317;28;20029;-75
2023/07/31 10:05:20;;;;;;;0.10;0.10;;;;;;;;;;5040966;28;20033;-75
2023/07/31 10:07:54;;;;;;;0.30;0.30;;;;;;;;;;5053805;28;20049;-75
2023/07/31 10:10:21;;;;;;;0.08;0.08;;;;;;;;;;5048346;28;20029;-75
2023/07/31 10:12:48;;;;;;;0.00;0.00;;;;;;;;;;5035335;28;20042;-75
2023/07/31 10:15:15;;;;;;;0.00;0.00;;;;;;;;;;5034101;28;20444;-75
2023/07/31 10:17:41;;;;;;;0.13;0.13;;;;;;;;;;5033781;28;20057;-75
2023/07/31 10:20:07;;;;;;;0.38;0.13;;;;;;;;;;5033693;28;20053;-73
2023/07/31 10:22:33;;;;;;;0.40;0.40;;;;;;;;;;5044365;28;20033;-74
2023/07/31 10:25:00;;;;;;;0.05;0.05;;;;;;;;;;5034474;28;20060;-74
2023/07/31 10:27:26;;;;;;;0.00;0.00;;;;;;;;;;5033781;28;20528;-74
2023/07/31 10:29:53;;;;;;;0.68;0.68;;;;;;;;;;5033648;28;20417;-77
2023/07/31 10:32:20;;;;;;;0.00;0.00;;;;;;;;;;5033519;28;20045;-75
2023/07/31 10:34:46;;;;;;;0.30;0.10;;;;;;;;;;5033551;28;20021;-75
2023/07/31 10:37:22;;;;;;;0.05;0.05;;;;;;;;;;5033601;28;20033;-75
2023/07/31 10:40:05;;;;;;;0.20;0.20;;;;;;;;;;5033160;28;20029;-75
2023/07/31 10:42:33;;;;;;;0.35;0.30;;;;;;;;;;5037569;28;20029;-74
2023/07/31 10:45:00;;;;;;;0.52;0.52;;;;;;;;;;5039208;28;20037;-75
2023/07/31 10:47:27;;;;;;;0.00;0.00;;;;;;;;;;5034672;28;20033;-75
2023/07/31 10:49:53;;;;;;;0.20;0.20;;;;;;;;;;5032735;28;20025;-74
2023/07/31 10:52:22;;;;;;;0.50;0.40;;;;;;;;;;5038411;28;20128;-75
2023/07/31 10:54:49;;;;;;;0.10;0.10;;;;;;;;;;5033184;28;20112;-74
2023/07/31 10:57:22;;;;;;;0.00;0.00;;;;;;;;;;5036026;28;20039;-75
2023/07/31 10:59:49;;;;;;;0.10;0.10;;;;;;;;;;5034373;28;20030;-75
2023/07/31 11:02:31;;;;;;;0.20;0.20;;;;;;;;;;5039683;28;20078;-74
2023/07/31 11:05:06;;;;;;;0.10;0.10;;;;;;;;;;5040338;28;20078;-75
2023/07/31 11:07:50;;;;;;;0.00;0.00;;;;;;;;;;5035287;28;20026;-74
2023/07/31 11:10:18;;;;;;;0.10;0.10;;;;;;;;;;5033347;28;20421;-75
2023/07/31 11:12:45;;;;;;;0.00;0.00;;;;;;;;;;5043243;28;20091;-75
2023/07/31 11:15:11;;;;;;;0.00;0.00;;;;;;;;;;5032926;28;20025;-75
2023/07/31 11:17:41;;;;;;;0.00;0.00;;;;;;;;;;5022176;28;20060;-75
2023/07/31 11:20:07;;;;;;;0.10;0.10;;;;;;;;;;5045521;28;20460;-75
2023/07/31 11:22:35;;;;;;;0.32;0.30;;;;;;;;;;5031945;28;20490;-75
2023/07/31 11:25:03;;;;;;;0.00;0.00;;;;;;;;;;5038136;28;20100;-75
2023/07/31 11:27:30;;;;;;;0.28;0.28;;;;;;;;;;5032681;28;20474;-75
2023/07/31 11:30:02;;;;;;;0.10;0.10;;;;;;;;;;5038303;28;20503;-75
2023/07/31 11:32:28;;;;;;;4.00;1.08;;;;;;;;;;5033949;28;20033;-75
2023/07/31 11:34:54;;;;;;;0.30;0.15;;;;;;;;;;5040417;28;20431;-76
2023/07/31 11:37:21;;;;;;;0.00;0.00;;;;;;;;;;5052519;28;20366;-80
2023/07/31 11:40:03;;;;;;;0.70;0.30;;;;;;;;;;5050462;28;20540;-74
2023/07/31 11:42:29;;;;;;;0.00;0.00;;;;;;;;;;5035774;28;20036;-74
2023/07/31 11:44:55;;;;;;;0.20;0.10;;;;;;;;;;5033629;28;20029;-74
2023/07/31 11:47:21;;;;;;;0.10;0.10;;;;;;;;;;5034256;28;20053;-75
2023/07/31 11:49:48;;;;;;;0.00;0.00;;;;;;;;;;5052066;28;20058;-74
2023/07/31 11:52:14;;;;;;;0.17;0.17;;;;;;;;;;5044561;28;20501;-74
2023/07/31 11:54:41;;;;;;;0.00;0.00;;;;;;;;;;5033901;28;20505;-74
2023/07/31 11:57:07;;;;;;;0.25;0.20;;;;;;;;;;5032029;28;20025;-74
2023/07/31 11:59:33;;;;;;;0.05;0.05;;;;;;;;;;5034685;28;20075;-73
2023/07/31 12:02:00;;;;;;;0.05;0.03;;;;;;;;;;5051906;28;20040;-74
2023/07/31 12:04:26;;;;;;;0.10;0.10;;;;;;;;;;5051601;28;20385;-74
2023/07/31 12:06:53;;;;;;;0.10;0.10;;;;;;;;;;5052592;28;20112;-74
2023/07/31 12:09:20;;;;;;;0.10;0.10;;;;;;;;;;5051913;28;20036;-74
2023/07/31 12:11:46;;;;;;;0.45;0.38;;;;;;;;;;5051885;28;20490;-75
2023/07/31 12:14:25;;;;;;;0.47;0.40;;;;;;;;;;5052454;28;20075;-74
2023/07/31 12:17:01;;;;;;;0.10;0.10;;;;;;;;;;5051782;28;20040;-75
2023/07/31 12:19:29;;;;;;;0.00;0.00;;;;;;;;;;5051644;28;20033;-75
2023/07/31 12:21:55;;;;;;;0.25;0.20;;;;;;;;;;5051889;28;20067;-75
2023/07/31 12:24:21;;;;;;;0.10;0.10;;;;;;;;;;5038714;28;20040;-74
2023/07/31 12:26:48;;;;;;;0.00;0.00;;;;;;;;;;5032045;28;20034;-75
2023/07/31 12:29:14;;;;;;;1.83;0.22;;;;;;;;;;5031643;28;20394;-75
2023/07/31 12:31:43;;;;;;;0.10;0.10;;;;;;;;;;5031926;28;20108;-75
2023/07/31 12:34:20;;;;;;;0.00;0.00;;;;;;;;;;5034345;28;20029;-74
2023/07/31 12:36:48;;;;;;;0.10;0.10;;;;;;;;;;5036450;28;20095;-75
2023/07/31 12:39:15;;;;;;;0.20;0.15;;;;;;;;;;5035748;28;20108;-75
2023/07/31 12:41:41;;;;;;;0.30;0.30;;;;;;;;;;5035964;28;20029;-75
2023/07/31 12:44:07;;;;;;;0.25;0.25;;;;;;;;;;5034618;28;20022;-75
2023/07/31 12:46:33;;;;;;;0.28;0.20;;;;;;;;;;5036160;28;20112;-75
2023/07/31 12:48:59;;;;;;;0.30;0.20;;;;;;;;;;5035588;28;20033;-75
2023/07/31 12:51:25;;;;;;;0.10;0.10;;;;;;;;;;5035879;28;20091;-75
2023/07/31 12:53:51;;;;;;;0.10;0.10;;;;;;;;;;5035365;28;20079;-75
2023/07/31 12:56:17;;;;;;;0.32;0.32;;;;;;;;;;5035671;28;20405;-75
2023/07/31 12:58:43;;;;;;;0.95;0.15;;;;;;;;;;5035576;28;20033;-75
2023/07/31 13:01:09;;;;;;;0.05;0.05;;;;;;;;;;5035441;28;20021;-75
2023/07/31 13:03:35;;;;;;;1.55;0.43;;;;;;;;;;5035215;28;20025;-75
2023/07/31 13:06:01;;;;;;;0.10;0.10;;;;;;;;;;5035631;28;20030;-75
2023/07/31 13:08:27;;;;;;;0.17;0.13;;;;;;;;;;5035503;28;20033;-75
2023/07/31 13:10:53;;;;;;;0.10;0.10;;;;;;;;;;5035548;28;20052;-75
2023/07/31 13:13:19;;;;;;;0.00;0.00;;;;;;;;;;5035225;28;20038;-75
2023/07/31 13:15:45;;;;;;;0.10;0.10;;;;;;;;;;5035175;28;20091;-75
2023/07/31 13:18:11;;;;;;;0.10;0.10;;;;;;;;;;5035017;28;20083;-75
2023/07/31 13:20:37;;;;;;;0.00;0.00;;;;;;;;;;5035150;28;20062;-75
2023/07/31 13:23:03;;;;;;;0.15;0.15;;;;;;;;;;5035047;28;20029;-75
2023/07/31 13:25:29;;;;;;;0.50;0.30;;;;;;;;;;5035082;28;20505;-76
2023/07/31 13:27:55;;;;;;;0.22;0.22;;;;;;;;;;5034912;28;20104;-74
2023/07/31 13:30:21;;;;;;;0.10;0.10;;;;;;;;;;5035149;28;20021;-75
2023/07/31 13:32:47;;;;;;;0.45;0.40;;;;;;;;;;5034266;28;20055;-75
2023/07/31 13:35:13;;;;;;;0.50;0.30;;;;;;;;;;5035334;28;20096;-75
2023/07/31 13:37:39;;;;;;;0.10;0.10;;;;;;;;;;5034750;28;20074;-75
2023/07/31 13:40:06;;;;;;;0.17;0.17;;;;;;;;;;5034737;28;20029;-76
2023/07/31 13:42:32;;;;;;;0.22;0.22;;;;;;;;;;5034509;28;20025;-75
2023/07/31 13:44:58;;;;;;;0.47;0.22;;;;;;;;;;5034607;28;20428;-75
2023/07/31 13:47:24;;;;;;;0.20;0.20;;;;;;;;;;5034319;28;20029;-75
2023/07/31 13:49:50;;;;;;;0.13;0.13;;;;;;;;;;5034927;28;20084;-75
2023/07/31 13:52:16;;;;;;;0.10;0.10;;;;;;;;;;5034457;28;20033;-75
2023/07/31 13:54:42;;;;;;;0.20;0.20;;;;;;;;;;5034646;28;20022;-75
2023/07/31 13:57:08;;;;;;;0.20;0.20;;;;;;;;;;5034582;28;20052;-74
2023/07/31 13:59:34;;;;;;;0.20;0.20;;;;;;;;;;5034458;28;20037;-75
2023/07/31 14:02:00;;;;;;;0.50;0.50;;;;;;;;;;5034411;28;20025;-75
2023/07/31 14:04:26;;;;;;;0.25;0.25;;;;;;;;;;5034330;28;20232;-75
2023/07/31 14:06:52;;;;;;;0.10;0.10;;;;;;;;;;5034333;28;20032;-75
2023/07/31 14:09:18;;;;;;;0.10;0.10;;;;;;;;;;5034250;28;20033;-75
2023/07/31 14:11:44;;;;;;;0.63;0.63;;;;;;;;;;5034114;28;20048;-75
2023/07/31 14:14:10;;;;;;;0.00;0.00;;;;;;;;;;5034612;28;20086;-75
2023/07/31 14:16:36;;;;;;;0.05;0.05;;;;;;;;;;5033655;28;20040;-74
2023/07/31 14:19:02;;;;;;;0.10;0.10;;;;;;;;;;5034035;28;20107;-76
2023/07/31 14:21:28;;;;;;;0.00;0.00;;;;;;;;;;5034008;28;20057;-76
2023/07/31 14:23:54;;;;;;;0.20;0.20;;;;;;;;;;5033877;28;20386;-76
2023/07/31 14:26:20;;;;;;;0.30;0.30;;;;;;;;;;5033875;28;20040;-76
2023/07/31 14:28:46;;;;;;;0.00;0.00;;;;;;;;;;5033810;28;20549;-76
2023/07/31 14:31:13;;;;;;;0.40;0.10;;;;;;;;;;5033461;28;20029;-75
2023/07/31 14:33:39;;;;;;;0.40;0.30;;;;;;;;;;5033758;28;20037;-76
2023/07/31 14:36:05;;;;;;;0.15;0.15;;;;;;;;;;5033750;28;20029;-76
2023/07/31 14:38:31;;;;;;;0.20;0.20;;;;;;;;;;5033703;28;20071;-76
2023/07/31 14:40:57;;;;;;;0.10;0.10;;;;;;;;;;5033979;28;20053;-75